Hillsboro, IL (62049)

9:12 PM CST on December 05, 2016 (GMT -0600)
| | Change Station

Elev -9999 ft 0.00 °N, 0.00 °E | Updated

Overcast
Overcast
°F
Feels Like °F
N
Wind Variable Wind from North
Gusts mph

Today
High -- | Low -- °F
--% Chance of Precip.
Yesterday
High -- | Low -- °F
Precip. -- in
Pressure 29.87 in
Visibility 10.0 miles
Clouds Overcast 1200 ft
Dew Point Not available.
Humidity Not available.
Rainfall --
Snow Depth Not available.
7:02 AM 4:35 PM
Waxing Crescent, 37% visible
METAR K3LF 060255Z AUTO 13006KT 10SM OVC012 02/01 A2987 RMK AO2 T00200010
Pressure 29.87 in
Visibility 10.0 miles
Clouds Overcast 1200 ft
Dew Point Not available.
Humidity Not available.
Rainfall --
Snow Depth Not available.
7:02 AM 4:35 PM
Waxing Crescent, 37% visible
METAR K3LF 060255Z AUTO 13006KT 10SM OVC012 02/01 A2987 RMK AO2 T00200010

10-Day Weather Forecast

Almanac

Astronomy

Dec. 05, 2016 Rise Set
Actual Time
Civil Twilight
Nautical Twilight
Astronomical Twilight
Moon
Length of Visible Light
Length of Day
Tomorrow will be .
, % of the Moon is Illuminated

Today's Extremes

State Highs State Lows

Community

WunderPhotos

Upload Photos

1,955,900 photos uploaded!

WunderBlog® & News

Nearby

Air Quality

  Air Quality AQ Index Pollutant
Not available.

Snow Depth

Station Depth Elevation

Earthquake Activity

City Distance Mag. Time & Date
Minimum magnitude displayed is 2.5.

Coastal Water Temperatures

Place Temperature

Stations

Nearby Weather Stations

Station Location Temp. Windchill Dew Point Humidity Wind Precip. Elev Updated Type
                   

Watches & Warnings

There are currently no watches in effect.